Time;durP1;ratioP1;P1;durP2;ratioP2;P2;SDS_P1;SDS_P2;PMS_P1;PMS_P2;Temp;Humidity;BMP_temperature;BMP_pressure;BME280_temperature;BME280_humidity;BME280_pressure;Samples;Min_cycle;Max_cycle;Signal;HPM_P1;HPM_P2
2021/10/03 00:00:30;;;;;;;;;2.00;2.00;;;;;22.05;52.42;99128.47;5076615;28;45441;-43
2021/10/03 00:02:57;;;;;;;;;4.25;3.00;;;;;22.05;52.55;99122.38;5076540;28;45636;-52
2021/10/03 00:05:26;;;;;;;;;2.00;2.00;;;;;22.05;52.07;99117.09;5075250;28;46243;-46
2021/10/03 00:07:59;;;;;;;;;3.00;3.00;;;;;22.04;52.11;99112.78;5076451;28;45236;-45
2021/10/03 00:10:28;;;;;;;;;2.25;2.25;;;;;22.05;52.51;99115.28;5076508;28;45484;-50
2021/10/03 00:12:54;;;;;;;;;3.25;2.75;;;;;22.05;52.38;99101.25;5076771;28;45327;-47
2021/10/03 00:15:20;;;;;;;;;4.00;2.00;;;;;22.05;52.71;99104.72;5076635;28;46160;-47
2021/10/03 00:17:48;;;;;;;;;2.00;2.00;;;;;22.03;52.44;99095.28;5076657;28;45776;-44
2021/10/03 00:20:15;;;;;;;;;2.50;2.50;;;;;22.04;52.42;99094.31;5076574;28;45287;-47
2021/10/03 00:22:41;;;;;;;;;1.25;1.25;;;;;22.03;52.49;99092.63;5076742;28;46179;-46
2021/10/03 00:25:09;;;;;;;;;4.00;1.75;;;;;22.04;52.51;99091.66;5076333;28;45621;-46
2021/10/03 00:27:35;;;;;;;;;1.50;1.50;;;;;22.02;52.23;99085.69;5076205;28;45779;-45
2021/10/03 00:30:02;;;;;;;;;2.50;2.50;;;;;22.01;52.66;99076.09;5076408;28;45277;-46
2021/10/03 00:32:28;;;;;;;;;2.00;2.00;;;;;22.02;52.85;99075.13;5076369;28;45559;-46
2021/10/03 00:34:54;;;;;;;;;2.75;2.75;;;;;22.02;52.16;99073.34;5075894;28;46605;-50
2021/10/03 00:37:19;;;;;;;;;2.25;2.00;;;;;22.01;52.54;99081.38;5076461;28;45345;-45
2021/10/03 00:39:45;;;;;;;;;2.00;2.00;;;;;22.00;52.63;99077.06;5076303;28;45230;-47
2021/10/03 00:42:11;;;;;;;;;1.00;1.00;;;;;22.01;52.28;99071.69;5076478;28;46034;-46
2021/10/03 00:44:36;;;;;;;;;2.00;2.00;;;;;22.01;52.58;99074.31;5075936;28;46743;-42
2021/10/03 00:47:02;;;;;;;;;2.25;2.25;;;;;21.99;52.45;99057.78;5075935;28;45388;-43
2021/10/03 00:49:33;;;;;;;;;2.25;2.25;;;;;22.00;52.51;99061.25;5057984;28;45338;-43
2021/10/03 00:51:59;;;;;;;;;2.75;2.75;;;;;21.99;52.59;99065.72;5076067;28;45447;-43
2021/10/03 00:54:25;;;;;;;;;3.25;2.00;;;;;21.99;52.64;99064.88;5075808;28;45344;-49
2021/10/03 00:56:50;;;;;;;;;3.00;3.00;;;;;21.99;52.52;99055.16;5076158;28;45292;-43
2021/10/03 00:59:15;;;;;;;;;3.25;2.25;;;;;21.99;52.59;99059.63;5075930;28;45331;-46
2021/10/03 01:01:41;;;;;;;;;2.00;2.00;;;;;21.98;52.49;99057.94;5076056;28;45274;-46
2021/10/03 01:04:06;;;;;;;;;3.00;3.00;;;;;21.99;52.81;99059.63;5075712;28;45526;-46
2021/10/03 01:06:31;;;;;;;;;2.25;2.25;;;;;21.98;52.64;99055.31;5075764;28;45321;-42
2021/10/03 01:08:57;;;;;;;;;1.50;1.50;;;;;21.96;52.56;99051.97;5075951;28;45781;-43
2021/10/03 01:11:22;;;;;;;;;2.75;2.75;;;;;21.97;52.66;99046.53;5076173;28;45585;-43
2021/10/03 01:13:48;;;;;;;;;2.00;2.00;;;;;21.97;52.71;99035.16;5077023;28;45650;-44
2021/10/03 01:16:14;;;;;;;;;2.50;2.50;;;;;21.96;52.87;99030.88;5079169;28;45877;-42
2021/10/03 01:18:40;;;;;;;;;2.75;2.75;;;;;21.95;52.71;99032.66;5079175;28;45401;-42
2021/10/03 01:21:07;;;;;;;;;3.00;1.25;;;;;21.95;52.59;99024.75;5079257;28;45469;-42
2021/10/03 01:23:33;;;;;;;;;2.50;2.50;;;;;21.96;52.82;99022.94;5079038;28;45503;-42
2021/10/03 01:25:59;;;;;;;;;3.25;3.25;;;;;21.93;52.52;99016.97;5078163;28;45599;-42
2021/10/03 01:28:24;;;;;;;;;3.50;3.00;;;;;21.96;52.72;99017.69;5079090;28;45258;-42
2021/10/03 01:30:53;;;;;;;;;2.00;1.00;;;;;21.94;52.93;99015.16;5079519;28;45586;-43
2021/10/03 01:33:21;;;;;;;;;2.00;2.00;;;;;21.93;52.73;99018.78;5078781;28;48358;-45
2021/10/03 01:35:47;;;;;;;;;5.00;2.00;;;;;21.91;52.36;99000.44;5078750;28;45845;-48
2021/10/03 01:38:14;;;;;;;;;3.00;2.00;;;;;21.96;52.71;99012.41;5079033;28;45421;-42
2021/10/03 01:40:43;;;;;;;;;2.00;2.00;;;;;21.92;52.77;98999.47;5079079;28;45522;-44
2021/10/03 01:43:09;;;;;;;;;3.25;3.25;;;;;21.93;52.65;98993.22;5078727;28;45406;-45
2021/10/03 01:45:35;;;;;;;;;2.25;2.25;;;;;21.92;52.78;98982.84;5078640;28;45316;-42
2021/10/03 01:48:11;;;;;;;;;2.00;2.00;;;;;21.91;52.67;98979.34;5078686;28;45410;-43
2021/10/03 01:50:39;;;;;;;;;2.00;2.00;;;;;21.92;52.72;98990.75;5078785;28;45573;-46
2021/10/03 01:53:06;;;;;;;;;2.00;2.00;;;;;21.91;52.79;98982.00;5078557;28;46429;-46
2021/10/03 01:55:31;;;;;;;;;3.00;3.00;;;;;21.91;52.83;98974.06;5094335;27;45745;-45
2021/10/03 01:57:57;;;;;;;;;4.25;4.25;;;;;21.91;52.78;98976.72;5078685;28;45394;-43
2021/10/03 02:00:22;;;;;;;;;2.50;2.00;;;;;21.91;52.78;98974.06;5078856;28;45236;-42
2021/10/03 02:02:58;;;;;;;;;3.25;2.00;;;;;21.90;52.83;98972.41;5078325;28;45260;-45
2021/10/03 02:05:23;;;;;;;;;3.25;3.25;;;;;21.91;52.81;98968.81;5078620;28;45614;-42
2021/10/03 02:07:49;;;;;;;;;4.00;4.00;;;;;21.91;52.75;98957.44;5078494;28;45881;-42
2021/10/03 02:10:14;;;;;;;;;2.50;2.50;;;;;21.91;52.65;98949.53;5078556;28;45502;-42
2021/10/03 02:12:39;;;;;;;;;4.00;4.00;;;;;21.91;52.70;98937.16;5078197;28;45355;-42
2021/10/03 02:15:05;;;;;;;;;4.50;3.00;;;;;21.90;52.69;98930.22;5078361;28;45272;-43
2021/10/03 02:17:31;;;;;;;;;4.75;3.75;;;;;21.89;52.88;98928.53;5060104;28;45365;-42
2021/10/03 02:19:57;;;;;;;;;3.00;2.00;;;;;21.89;52.86;98933.81;5078620;28;45471;-45
2021/10/03 02:22:23;;;;;;;;;4.00;4.00;;;;;21.90;53.05;98924.13;5078381;28;46211;-42
2021/10/03 02:24:54;;;;;;;;;3.25;3.25;;;;;21.89;53.01;98910.06;5078189;28;45441;-46
2021/10/03 02:27:20;;;;;;;;;5.00;4.00;;;;;21.91;52.79;98909.97;5078159;28;45426;-42
2021/10/03 02:29:45;;;;;;;;;4.00;3.00;;;;;21.90;52.93;98922.28;5078331;28;45424;-46
2021/10/03 02:32:11;;;;;;;;;2.75;2.75;;;;;21.89;52.94;98902.16;5077977;28;45352;-50
2021/10/03 02:34:36;;;;;;;;;2.25;2.25;;;;;21.89;53.01;98902.16;5077999;28;45450;-43
2021/10/03 02:37:02;;;;;;;;;3.00;3.00;;;;;21.89;52.76;98890.78;5078231;28;45737;-44
2021/10/03 02:39:27;;;;;;;;;3.25;3.25;;;;;21.89;52.86;98891.63;5078143;28;45527;-42
2021/10/03 02:41:53;;;;;;;;;3.25;2.75;;;;;21.89;52.68;98896.06;5077971;28;45516;-42
2021/10/03 02:44:18;;;;;;;;;4.50;4.50;;;;;21.90;52.91;98895.09;5077849;28;45311;-43
2021/10/03 02:46:43;;;;;;;;;4.00;2.00;;;;;21.88;52.95;98897.84;5078001;28;45209;-45
2021/10/03 02:49:09;;;;;;;;;2.50;2.00;;;;;21.89;52.75;98888.16;5078087;28;45515;-42
2021/10/03 02:51:34;;;;;;;;;4.00;4.00;;;;;21.88;53.01;98889.94;5093336;27;46349;-45
2021/10/03 02:54:00;;;;;;;;;4.00;3.00;;;;;21.88;52.84;98875.94;5059461;28;45440;-44
2021/10/03 02:56:27;;;;;;;;;5.50;5.00;;;;;21.87;53.07;98872.50;5078048;28;45386;-45
2021/10/03 02:58:53;;;;;;;;;4.25;4.25;;;;;21.87;52.79;98869.84;5078115;28;45530;-45
2021/10/03 03:01:19;;;;;;;;;4.00;3.00;;;;;21.87;52.90;98858.47;5077054;28;46394;-41
2021/10/03 03:03:44;;;;;;;;;3.50;3.50;;;;;21.88;52.94;98857.47;5077316;28;45427;-44
2021/10/03 03:06:10;;;;;;;;;2.25;2.25;;;;;21.87;52.77;98859.31;5077639;28;45270;-47
2021/10/03 03:08:36;;;;;;;;;3.25;3.25;;;;;21.88;52.79;98855.66;5077787;28;45331;-45
2021/10/03 03:11:03;;;;;;;;;3.00;3.00;;;;;21.87;53.25;98864.56;5077264;28;45601;-43
2021/10/03 03:13:28;;;;;;;;;3.00;3.00;;;;;21.89;52.22;98874.97;5077676;28;45314;-43
2021/10/03 03:15:55;;;;;;;;;4.00;4.00;;;;;21.88;53.00;98857.47;5077741;28;45418;-42
2021/10/03 03:18:21;;;;;;;;;2.25;2.25;;;;;21.89;53.13;98853.88;5077641;28;45550;-48
2021/10/03 03:20:47;;;;;;;;;3.50;3.50;;;;;21.87;52.88;98843.47;5077112;28;45305;-51
2021/10/03 03:23:12;;;;;;;;;6.75;3.50;;;;;21.86;53.08;98849.72;5077229;28;45908;-48
2021/10/03 03:25:38;;;;;;;;;3.75;3.75;;;;;21.86;52.48;98828.63;5059124;28;45321;-51
2021/10/03 03:28:05;;;;;;;;;3.00;3.00;;;;;21.86;52.78;98823.34;5077491;28;45267;-47
2021/10/03 03:30:31;;;;;;;;;4.00;4.00;;;;;21.86;52.84;98826.00;5076959;28;46668;-48
2021/10/03 03:32:56;;;;;;;;;3.00;3.00;;;;;21.86;52.81;98820.72;5077396;28;45449;-45
2021/10/03 03:35:22;;;;;;;;;4.00;4.00;;;;;21.87;52.75;98821.53;5077183;28;45371;-48
2021/10/03 03:37:47;;;;;;;;;4.00;4.00;;;;;21.85;53.19;98815.56;5076659;28;45433;-48
2021/10/03 03:40:15;;;;;;;;;5.00;4.75;;;;;21.86;53.04;98818.06;5076916;28;45503;-49
2021/10/03 03:42:41;;;;;;;;;3.75;3.00;;;;;21.86;52.88;98817.22;5076786;28;45859;-48
2021/10/03 03:45:08;;;;;;;;;4.25;4.25;;;;;21.86;52.96;98825.16;5076989;28;45279;-48
2021/10/03 03:47:33;;;;;;;;;3.25;3.00;;;;;21.87;52.80;98818.91;5077183;28;45530;-46
2021/10/03 03:49:59;;;;;;;;;5.00;3.50;;;;;21.86;52.68;98823.34;5077167;28;45392;-46
2021/10/03 03:52:24;;;;;;;;;4.00;4.00;;;;;21.84;52.93;98819.16;5076880;28;45339;-45
2021/10/03 03:54:49;;;;;;;;;6.00;4.00;;;;;21.85;52.95;98821.69;5076799;28;45319;-46
2021/10/03 03:57:15;;;;;;;;;4.00;4.00;;;;;21.85;52.88;98819.06;5077032;28;45382;-48
2021/10/03 03:59:41;;;;;;;;;5.75;4.00;;;;;21.86;52.94;98822.50;5076562;28;45692;-50
2021/10/03 04:02:06;;;;;;;;;3.00;3.00;;;;;21.86;52.81;98814.59;5076660;28;45335;-46
2021/10/03 04:04:31;;;;;;;;;3.75;3.75;;;;;21.86;52.95;98820.72;5076754;28;45414;-46
2021/10/03 04:06:57;;;;;;;;;5.00;4.00;;;;;21.85;52.88;98821.69;5077139;28;45325;-48
2021/10/03 04:09:22;;;;;;;;;4.00;4.00;;;;;21.85;52.93;98818.19;5076515;28;46348;-46
2021/10/03 04:11:48;;;;;;;;;4.25;4.25;;;;;21.85;52.88;98826.13;5076399;28;45261;-42
2021/10/03 04:14:13;;;;;;;;;5.50;4.50;;;;;21.84;52.95;98825.28;5076549;28;45388;-42
2021/10/03 04:16:39;;;;;;;;;4.50;4.50;;;;;21.85;52.84;98828.75;5076973;28;45534;-44
2021/10/03 04:19:04;;;;;;;;;4.50;4.50;;;;;21.84;53.03;98825.28;5076374;28;46021;-42
2021/10/03 04:21:30;;;;;;;;;4.00;4.00;;;;;21.84;52.91;98825.28;5076675;28;45224;-43
2021/10/03 04:23:56;;;;;;;;;4.50;4.00;;;;;21.83;52.78;98823.63;5076607;28;45333;-47
2021/10/03 04:26:22;;;;;;;;;5.00;5.00;;;;;21.84;52.91;98835.84;5075421;28;45367;-48
2021/10/03 04:28:47;;;;;;;;;4.00;4.00;;;;;21.83;53.11;98836.00;5076405;28;45356;-46
2021/10/03 04:31:12;;;;;;;;;5.50;4.00;;;;;21.84;53.05;98835.84;5076338;28;45361;-46
2021/10/03 04:33:41;;;;;;;;;4.00;4.00;;;;;21.83;52.78;98844.72;5076329;28;45266;-47
2021/10/03 04:36:10;;;;;;;;;3.00;3.00;;;;;21.84;52.95;98835.84;5076641;28;45358;-49
2021/10/03 04:38:36;;;;;;;;;4.75;4.25;;;;;21.84;53.07;98840.28;5076128;28;45481;-51
2021/10/03 04:41:02;;;;;;;;;4.00;4.00;;;;;21.83;52.89;98828.91;5076393;28;45635;-43
2021/10/03 04:43:28;;;;;;;;;5.25;3.75;;;;;21.84;52.96;98835.00;5076494;28;45268;-52
2021/10/03 04:45:53;;;;;;;;;4.25;4.00;;;;;21.83;52.78;98834.19;5076369;28;45578;-52
2021/10/03 04:48:19;;;;;;;;;4.25;3.75;;;;;21.83;52.83;98821.00;5076607;28;45670;-47
2021/10/03 04:50:45;;;;;;;;;3.75;3.00;;;;;21.84;52.88;98821.81;5079482;28;45390;-49
2021/10/03 04:53:10;;;;;;;;;4.75;4.50;;;;;21.83;53.08;98834.19;5079421;28;45366;-48
2021/10/03 04:55:35;;;;;;;;;5.00;4.00;;;;;21.82;52.90;98814.06;5079757;28;45514;-43
2021/10/03 04:58:01;;;;;;;;;5.00;5.00;;;;;21.83;53.04;98813.09;5079739;28;46630;-45
2021/10/03 05:00:26;;;;;;;;;4.75;4.50;;;;;21.82;52.85;98811.41;5079336;28;45493;-43
2021/10/03 05:02:52;;;;;;;;;5.75;5.00;;;;;21.83;52.90;98813.09;5079388;28;45399;-46
2021/10/03 05:05:17;;;;;;;;;5.00;5.00;;;;;21.82;52.99;98806.13;5079530;28;45411;-43
2021/10/03 05:07:42;;;;;;;;;5.25;4.00;;;;;21.83;52.73;98801.72;5060973;28;46873;-42
2021/10/03 05:10:08;;;;;;;;;4.00;4.00;;;;;21.82;52.87;98827.25;5079294;28;45335;-47
2021/10/03 05:12:33;;;;;;;;;5.25;5.00;;;;;21.82;53.00;98843.06;5079539;28;45446;-48
2021/10/03 05:14:59;;;;;;;;;5.50;5.50;;;;;21.82;52.86;98850.97;5079729;28;45371;-48
2021/10/03 05:17:24;;;;;;;;;5.25;4.25;;;;;21.81;53.05;98888.03;5079112;28;46174;-44
2021/10/03 05:19:50;;;;;;;;;5.00;4.00;;;;;21.81;53.07;98822.94;5079144;28;45247;-51
2021/10/03 05:22:15;;;;;;;;;5.00;3.50;;;;;21.81;53.01;98886.22;5079215;28;45295;-43
2021/10/03 05:24:40;;;;;;;;;5.00;5.00;;;;;21.82;52.81;98866.78;5079359;28;45465;-45
2021/10/03 05:27:06;;;;;;;;;3.75;3.75;;;;;21.82;52.80;98879.97;5079020;28;46352;-47
2021/10/03 05:29:31;;;;;;;;;5.25;3.25;;;;;21.82;53.20;98895.81;5079285;28;45196;-50
2021/10/03 05:31:56;;;;;;;;;6.75;5.25;;;;;21.82;52.94;98906.34;5079113;28;45409;-49
2021/10/03 05:34:22;;;;;;;;;4.00;4.00;;;;;21.82;52.91;98890.53;5079085;28;45544;-44
2021/10/03 05:36:47;;;;;;;;;4.00;4.00;;;;;21.82;52.90;98911.63;5078753;28;45359;-49
2021/10/03 05:39:13;;;;;;;;;4.75;4.75;;;;;21.82;52.77;98911.63;5078788;28;45408;-51
2021/10/03 05:41:38;;;;;;;;;3.50;3.50;;;;;21.82;52.99;98895.81;5078926;28;45228;-46
2021/10/03 05:44:04;;;;;;;;;4.75;4.75;;;;;21.83;52.81;98910.66;5079225;28;45248;-50
2021/10/03 05:46:30;;;;;;;;;5.00;4.00;;;;;21.83;52.96;98941.47;5078545;28;46737;-46
2021/10/03 05:48:56;;;;;;;;;4.25;4.25;;;;;21.82;53.19;98922.16;5078725;28;45831;-48
2021/10/03 05:51:21;;;;;;;;;5.00;4.00;;;;;21.82;52.80;98955.63;5077435;28;45406;-51
2021/10/03 05:53:46;;;;;;;;;6.00;5.25;;;;;21.83;52.84;98939.66;5078680;28;45406;-52
2021/10/03 05:56:12;;;;;;;;;6.25;4.75;;;;;21.81;53.07;98946.88;5078393;28;45915;-48
2021/10/03 05:58:37;;;;;;;;;4.25;4.25;;;;;21.82;52.81;98948.53;5078540;28;45423;-47
2021/10/03 06:01:03;;;;;;;;;6.00;5.00;;;;;21.82;52.91;98964.38;5078151;28;45347;-47
2021/10/03 06:03:28;;;;;;;;;5.00;3.25;;;;;21.83;52.73;98987.13;5078841;28;45629;-48
2021/10/03 06:05:53;;;;;;;;;5.00;5.00;;;;;21.81;53.02;98989.06;5078329;28;46512;-46
2021/10/03 06:08:19;;;;;;;;;5.00;5.00;;;;;21.83;53.04;98992.41;5078196;28;45402;-43
2021/10/03 06:10:45;;;;;;;;;4.00;3.25;;;;;21.82;53.00;98977.56;5078461;28;45414;-43
2021/10/03 06:13:11;;;;;;;;;3.75;3.00;;;;;21.82;52.85;98974.91;5078379;28;45586;-43
2021/10/03 06:15:39;;;;;;;;;4.75;4.75;;;;;21.81;52.67;98975.88;5059888;28;47238;-45
2021/10/03 06:18:06;;;;;;;;;4.00;3.00;;;;;21.83;53.03;98986.31;5078355;28;45405;-53
2021/10/03 06:20:31;;;;;;;;;4.25;4.25;;;;;21.82;52.91;98989.91;5078191;28;45402;-50
2021/10/03 06:22:57;;;;;;;;;2.75;2.50;;;;;21.82;52.65;99011.00;5078393;28;46189;-49
2021/10/03 06:25:22;;;;;;;;;2.25;2.25;;;;;21.82;52.92;99000.47;5078084;28;46265;-51
2021/10/03 06:27:48;;;;;;;;;2.00;1.25;;;;;21.80;52.75;98989.22;5078017;28;45498;-49
2021/10/03 06:30:13;;;;;;;;;1.25;1.00;;;;;21.79;53.02;98996.28;5078234;28;45376;-47
2021/10/03 06:32:38;;;;;;;;;1.00;1.00;;;;;21.79;52.94;99001.56;5078157;28;45570;-46
2021/10/03 06:35:05;;;;;;;;;1.25;1.00;;;;;21.77;52.94;99004.34;5078143;28;45343;-51
2021/10/03 06:37:31;;;;;;;;;0.25;0.00;;;;;21.76;53.03;99001.84;5077838;28;45728;-49
2021/10/03 06:39:56;;;;;;;;;0.00;0.00;;;;;21.75;53.11;98992.28;5078042;28;45447;-46
2021/10/03 06:42:22;;;;;;;;;0.50;0.00;;;;;21.74;53.07;98967.69;5078091;28;45473;-51
2021/10/03 06:44:47;;;;;;;;;0.00;0.00;;;;;21.73;53.21;99002.13;5093513;27;47177;-50
2021/10/03 06:47:12;;;;;;;;;1.50;1.25;;;;;21.71;52.88;99012.81;5077803;28;45332;-52
2021/10/03 06:49:39;;;;;;;;;0.00;0.00;;;;;21.70;53.27;98991.84;5078074;28;50046;-52
2021/10/03 06:52:05;;;;;;;;;0.00;0.00;;;;;21.68;53.50;98964.78;5078353;28;45312;-48
2021/10/03 06:54:31;;;;;;;;;0.25;0.25;;;;;21.60;53.42;98936.47;5077536;28;46724;-50
2021/10/03 06:56:56;;;;;;;;;0.00;0.00;;;;;21.57;53.71;98944.63;5077683;28;45465;-49
2021/10/03 06:59:22;;;;;;;;;0.00;0.00;;;;;21.52;53.72;98952.94;5077469;28;45429;-46
2021/10/03 07:01:47;;;;;;;;;0.00;0.00;;;;;21.50;53.55;98986.50;5077886;28;45313;-45
2021/10/03 07:04:13;;;;;;;;;1.00;1.00;;;;;21.49;53.56;98990.13;5077624;28;46584;-52
2021/10/03 07:06:38;;;;;;;;;0.00;0.00;;;;;21.50;53.75;99012.06;5077696;28;45385;-45
2021/10/03 07:09:04;;;;;;;;;0.00;0.00;;;;;21.50;53.57;99023.41;5078073;28;45449;-47
2021/10/03 07:11:29;;;;;;;;;0.25;0.25;;;;;21.50;53.53;99027.88;5076930;28;45561;-47
2021/10/03 07:13:55;;;;;;;;;1.00;1.00;;;;;21.51;53.71;99040.91;5077320;28;45466;-51
2021/10/03 07:16:20;;;;;;;;;1.00;0.00;;;;;21.51;53.61;99043.53;5077426;28;45311;-46
2021/10/03 07:18:46;;;;;;;;;0.00;0.00;;;;;21.52;53.86;99045.22;5077506;28;45227;-51
2021/10/03 07:21:12;;;;;;;;;1.00;0.50;;;;;21.51;53.82;99040.06;5077359;28;45557;-47
2021/10/03 07:23:37;;;;;;;;;2.00;1.00;;;;;21.52;53.82;99032.03;5077361;28;46596;-50
2021/10/03 07:26:03;;;;;;;;;0.00;0.00;;;;;21.51;54.01;99033.00;5076763;28;45453;-48
2021/10/03 07:28:28;;;;;;;;;0.25;0.25;;;;;21.49;53.84;99045.47;5076545;28;45262;-49
2021/10/03 07:30:54;;;;;;;;;0.25;0.25;;;;;21.47;53.75;99037.72;5058960;28;45383;-48
2021/10/03 07:33:19;;;;;;;;;0.00;0.00;;;;;21.45;54.06;99046.69;5058537;28;46125;-49
2021/10/03 07:35:48;;;;;;;;;0.50;0.50;;;;;21.43;53.91;99033.66;5076976;28;45331;-46
2021/10/03 07:38:14;;;;;;;;;0.00;0.00;;;;;21.43;53.77;99032.84;5077041;28;45338;-48
2021/10/03 07:40:41;;;;;;;;;0.00;0.00;;;;;21.40;54.03;99033.91;5059314;28;45263;-43
2021/10/03 07:43:06;;;;;;;;;0.75;0.75;;;;;21.40;54.11;99033.09;5077212;28;46559;-46
2021/10/03 07:45:32;;;;;;;;;0.25;0.25;;;;;21.39;54.07;99041.97;5076826;28;45335;-47
2021/10/03 07:47:58;;;;;;;;;0.00;0.00;;;;;21.38;54.24;99056.13;5058752;28;45240;-45
2021/10/03 07:50:23;;;;;;;;;0.00;0.00;;;;;21.40;53.93;99064.72;5076963;28;45625;-47
2021/10/03 07:52:49;;;;;;;;;0.00;0.00;;;;;21.40;53.80;99064.72;5076749;28;45528;-51
2021/10/03 07:55:14;;;;;;;;;0.00;0.00;;;;;21.40;53.76;99060.28;5076650;28;45399;-46
2021/10/03 07:57:40;;;;;;;;;0.25;0.25;;;;;21.42;54.26;99058.34;5077235;28;45446;-46
2021/10/03 08:00:06;;;;;;;;;0.00;0.00;;;;;21.42;54.25;99071.53;5076898;28;45502;-46
2021/10/03 08:02:32;;;;;;;;;1.00;0.00;;;;;21.44;53.93;99076.69;5076803;28;46497;-51
2021/10/03 08:05:00;;;;;;;;;1.00;1.00;;;;;21.44;53.92;99071.41;5076433;28;45478;-46
2021/10/03 08:07:26;;;;;;;;;1.50;0.00;;;;;21.44;54.38;99071.41;5076822;28;45451;-50
2021/10/03 08:09:51;;;;;;;;;0.00;0.00;;;;;21.44;54.47;99076.69;5077085;28;45213;-43
2021/10/03 08:12:17;;;;;;;;;0.00;0.00;;;;;21.43;54.04;99094.28;5076510;28;46419;-46
2021/10/03 08:14:42;;;;;;;;;0.50;0.50;;;;;21.42;54.02;99073.34;5076709;28;45336;-47
2021/10/03 08:17:08;;;;;;;;;1.00;0.00;;;;;21.43;54.21;99086.38;5077010;28;45215;-46
2021/10/03 08:19:33;;;;;;;;;2.00;0.00;;;;;21.43;54.01;99089.00;5076719;28;45233;-43
2021/10/03 08:21:58;;;;;;;;;0.75;0.75;;;;;21.43;54.24;99099.56;5076409;28;45509;-47
2021/10/03 08:24:24;;;;;;;;;0.50;0.50;;;;;21.45;54.24;99109.94;5080324;28;45398;-45
2021/10/03 08:26:50;;;;;;;;;0.75;0.00;;;;;21.44;54.25;99103.84;5080162;28;45477;-52
2021/10/03 08:29:16;;;;;;;;;0.00;0.00;;;;;21.44;54.48;99106.50;5080248;28;45480;-48
2021/10/03 08:31:41;;;;;;;;;0.00;0.00;;;;;21.46;54.10;99111.63;5080125;28;45596;-48
2021/10/03 08:34:06;;;;;;;;;0.00;0.00;;;;;21.43;54.26;99119.81;5079758;28;45339;-47
2021/10/03 08:36:32;;;;;;;;;0.75;0.00;;;;;21.45;54.09;99108.16;5080089;28;45419;-52
2021/10/03 08:38:57;;;;;;;;;0.00;0.00;;;;;21.46;54.13;99108.97;5080186;28;45312;-46
2021/10/03 08:41:22;;;;;;;;;1.25;0.00;;;;;21.44;54.01;99109.13;5079739;28;45389;-46
2021/10/03 08:43:52;;;;;;;;;1.00;1.00;;;;;21.45;54.34;99116.06;5079803;28;45361;-43
2021/10/03 08:46:22;;;;;;;;;0.00;0.00;;;;;21.44;54.45;99110.94;5079889;28;45366;-45
2021/10/03 08:48:48;;;;;;;;;0.00;0.00;;;;;21.44;54.15;99132.84;5080028;28;45390;-44
2021/10/03 08:51:14;;;;;;;;;0.25;0.00;;;;;21.43;54.68;99143.53;5061737;28;46516;-45
2021/10/03 08:53:39;;;;;;;;;1.00;1.00;;;;;21.43;54.60;99148.81;5079936;28;45248;-43
2021/10/03 08:56:05;;;;;;;;;1.00;1.00;;;;;21.44;54.66;99161.84;5079717;28;45299;-48
2021/10/03 08:58:31;;;;;;;;;0.00;0.00;;;;;21.44;54.19;99164.47;5079817;28;45616;-51
2021/10/03 09:00:56;;;;;;;;;1.00;1.00;;;;;21.45;54.62;99160.03;5079323;28;46168;-45
2021/10/03 09:03:22;;;;;;;;;0.00;0.00;;;;;21.44;54.52;99164.47;5079541;28;45232;-50
2021/10/03 09:05:50;;;;;;;;;2.00;0.00;;;;;21.45;54.33;99157.38;5079693;28;45313;-44
2021/10/03 09:08:27;;;;;;;;;1.00;1.00;;;;;21.46;54.51;99164.34;5079654;28;45488;-45
2021/10/03 09:11:03;;;;;;;;;0.00;0.00;;;;;21.46;54.53;99165.19;5079413;28;45972;-50
2021/10/03 09:13:31;;;;;;;;;1.00;1.00;;;;;21.47;54.53;99182.66;5079140;28;45398;-45
2021/10/03 09:16:10;;;;;;;;;2.00;2.00;;;;;21.47;54.49;99181.81;5079413;28;45385;-49
2021/10/03 09:18:59;;;;;;;;;0.75;0.75;;;;;21.47;54.62;99179.19;5079396;28;45334;-53
2021/10/03 09:21:31;;;;;;;;;1.50;1.50;;;;;21.48;54.64;99186.13;5079007;28;46709;-44
2021/10/03 09:23:57;;;;;;;;;0.50;0.50;;;;;21.47;54.79;99192.38;5079063;28;45288;-44
2021/10/03 09:26:23;;;;;;;;;1.00;1.00;;;;;21.48;54.72;99199.31;5079273;28;45465;-52
2021/10/03 09:28:49;;;;;;;;;2.50;2.50;;;;;21.47;54.65;99195.00;5078044;28;45381;-50
2021/10/03 09:31:17;;;;;;;;;1.00;1.00;;;;;21.47;55.18;99197.63;5079094;28;45566;-52
2021/10/03 09:33:46;;;;;;;;;3.25;1.50;;;;;21.49;55.65;99205.44;5078606;28;45216;-49
2021/10/03 09:36:17;;;;;;;;;1.00;1.00;;;;;21.49;55.37;99214.16;5079137;28;45421;-49
2021/10/03 09:38:45;;;;;;;;;1.75;1.00;;;;;21.49;54.94;99227.34;5079559;28;45323;-53
2021/10/03 09:41:11;;;;;;;;;1.25;1.25;;;;;21.49;55.59;99248.44;5078754;28;46292;-48
2021/10/03 09:43:38;;;;;;;;;1.00;0.25;;;;;21.51;55.01;99317.69;5078805;28;45681;-47
2021/10/03 09:46:03;;;;;;;;;0.25;0.25;;;;;21.56;55.51;99320.75;5078708;28;45473;-52
2021/10/03 09:48:28;;;;;;;;;1.00;1.00;;;;;21.60;55.46;99345.94;5078927;28;45450;-50
2021/10/03 09:50:54;;;;;;;;;2.00;0.00;;;;;21.62;54.65;99370.38;5078640;28;46209;-53
2021/10/03 09:53:20;;;;;;;;;0.00;0.00;;;;;21.61;54.13;99396.84;5078371;28;45827;-53
2021/10/03 09:55:46;;;;;;;;;0.00;0.00;;;;;21.62;53.34;99411.72;5079021;28;45349;-51
2021/10/03 09:58:12;;;;;;;;;0.00;0.00;;;;;21.61;53.22;99426.69;5078840;28;45586;-51
2021/10/03 10:00:37;;;;;;;;;0.00;0.00;;;;;21.59;53.17;99428.63;5078372;28;46318;-49
2021/10/03 10:03:04;;;;;;;;;0.00;0.00;;;;;21.61;52.59;99441.66;5078407;28;45245;-51
2021/10/03 10:05:29;;;;;;;;;0.00;0.00;;;;;21.62;52.91;99444.19;5078565;28;45415;-50
2021/10/03 10:07:58;;;;;;;;;0.00;0.00;;;;;21.64;53.10;99464.31;5078702;28;45250;-52
2021/10/03 10:10:24;;;;;;;;;0.00;0.00;;;;;21.66;52.81;99468.50;5078365;28;47030;-49
2021/10/03 10:13:02;;;;;;;;;1.00;1.00;;;;;21.68;52.76;99489.47;5078263;28;45306;-46
2021/10/03 10:15:28;;;;;;;;;0.00;0.00;;;;;21.69;52.56;99534.19;5078963;27;45332;-46
2021/10/03 10:17:53;;;;;;;;;0.25;0.25;;;;;21.71;52.50;99532.28;5078693;28;45339;-46
2021/10/03 10:20:22;;;;;;;;;0.00;0.00;;;;;21.73;52.45;99554.06;5078086;28;45471;-45
2021/10/03 10:22:56;;;;;;;;;0.00;0.00;;;;;21.76;52.23;99529.25;5078474;28;45496;-49
2021/10/03 10:25:41;;;;;;;;;0.00;0.00;;;;;21.76;51.95;99539.81;5078362;28;45324;-49
2021/10/03 10:28:22;;;;;;;;;0.00;0.00;;;;;21.78;52.16;99564.22;5078427;28;45363;-53
2021/10/03 10:31:08;;;;;;;;;0.00;0.00;;;;;21.80;51.88;99599.22;5078236;28;46070;-51
2021/10/03 10:34:05;;;;;;;;;0.00;0.00;;;;;21.82;51.87;99614.97;5058962;28;45661;-52
2021/10/03 10:36:33;;;;;;;;;0.75;0.75;;;;;21.81;51.59;99603.56;5077463;27;45343;-48
2021/10/03 10:39:08;;;;;;;;;0.00;0.00;;;;;21.83;51.58;99609.53;5059900;28;45320;-45
2021/10/03 10:41:42;;;;;;;;;0.00;0.00;;;;;21.82;51.72;99623.69;5077943;28;45428;-51
2021/10/03 10:44:28;;;;;;;;;0.00;0.00;;;;;21.84;51.48;99621.78;5077917;28;45389;-48
2021/10/03 10:46:55;;;;;;;;;2.00;0.00;;;;;21.85;51.52;99655.09;5077885;28;45302;-47
2021/10/03 10:49:32;;;;;;;;;0.00;0.00;;;;;21.85;51.17;99657.75;5078214;28;45306;-48
2021/10/03 10:52:19;;;;;;;;;0.75;0.00;;;;;21.87;51.10;99684.00;5077521;28;47248;-52
2021/10/03 10:54:59;;;;;;;;;0.00;0.00;;;;;21.86;51.09;99691.06;5077001;28;45497;-48
2021/10/03 10:57:30;;;;;;;;;0.00;0.00;;;;;21.86;50.82;99703.41;5077586;28;45230;-51
2021/10/03 11:00:18;;;;;;;;;0.00;0.00;;;;;21.86;50.79;99714.81;5077919;28;45321;-51
2021/10/03 11:02:57;;;;;;;;;0.00;0.00;;;;;21.85;50.72;99710.50;5077433;28;46629;-54
2021/10/03 11:05:34;;;;;;;;;0.00;0.00;;;;;21.87;50.41;99700.66;5077580;28;45245;-54
2021/10/03 11:08:11;;;;;;;;;0.25;0.00;;;;;21.89;50.40;99696.09;5077660;28;45328;-53
2021/10/03 11:11:11;;;;;;;;;0.00;0.00;;;;;21.87;50.61;99695.41;5059527;28;45375;-52
2021/10/03 11:13:54;;;;;;;;;0.00;0.00;;;;;21.89;50.37;99698.72;5034773;28;45419;-54
2021/10/03 11:16:35;;;;;;;;;0.00;0.00;;;;;21.90;50.53;99716.22;5073518;28;45398;-54
2021/10/03 11:19:06;;;;;;;;;1.25;0.25;;;;;21.92;50.40;99727.50;5077671;28;45346;-50
2021/10/03 11:21:38;;;;;;;;;1.75;0.00;;;;;21.92;50.31;99727.50;5077704;28;45319;-47
2021/10/03 11:24:07;;;;;;;;;1.00;0.00;;;;;21.93;49.79;99739.75;5058994;28;46718;-52
2021/10/03 11:27:00;;;;;;;;;0.00;0.00;;;;;21.93;49.96;99766.13;5077011;28;45296;-54
2021/10/03 11:29:31;;;;;;;;;0.00;0.00;;;;;21.96;49.90;99782.69;5072070;27;45425;-55
2021/10/03 11:32:00;;;;;;;;;0.00;0.00;;;;;21.97;49.87;99793.09;5077419;28;45530;-52
2021/10/03 11:34:38;;;;;;;;;1.00;1.00;;;;;21.97;49.62;99795.75;5077020;28;45295;-54